sensor_id;sensor_type;location;lat;lon;timestamp;pressure;altitude;pressure_sealevel;temperature;humidity
7990;BME280;4040;42.848;23.034;2023-04-08T00:03:32;95007.91;;;4.60;100.00
7990;BME280;4040;42.848;23.034;2023-04-08T00:09:52;95006.84;;;4.64;100.00
7990;BME280;4040;42.848;23.034;2023-04-08T00:15:40;95001.31;;;4.54;100.00
7990;BME280;4040;42.848;23.034;2023-04-08T00:21:29;95004.44;;;4.56;100.00
7990;BME280;4040;42.848;23.034;2023-04-08T00:27:19;95008.59;;;4.31;100.00
7990;BME280;4040;42.848;23.034;2023-04-08T00:33:08;94998.09;;;3.96;100.00
7990;BME280;4040;42.848;23.034;2023-04-08T00:38:56;95002.09;;;4.06;100.00
7990;BME280;4040;42.848;23.034;2023-04-08T00:44:47;95003.47;;;4.00;100.00
7990;BME280;4040;42.848;23.034;2023-04-08T00:50:36;95008.81;;;4.00;100.00
7990;BME280;4040;42.848;23.034;2023-04-08T00:56:25;94999.69;;;4.01;100.00
7990;BME280;4040;42.848;23.034;2023-04-08T01:02:30;95003.44;;;4.19;100.00
7990;BME280;4040;42.848;23.034;2023-04-08T01:08:26;94996.28;;;4.23;100.00
7990;BME280;4040;42.848;23.034;2023-04-08T01:14:19;95005.63;;;4.36;100.00
7990;BME280;4040;42.848;23.034;2023-04-08T01:20:12;95014.63;;;4.28;100.00
7990;BME280;4040;42.848;23.034;2023-04-08T01:26:04;95011.38;;;4.15;100.00
7990;BME280;4040;42.848;23.034;2023-04-08T01:31:54;95005.88;;;4.05;100.00
7990;BME280;4040;42.848;23.034;2023-04-08T01:37:44;95006.31;;;3.88;100.00
7990;BME280;4040;42.848;23.034;2023-04-08T01:43:37;95007.03;;;3.85;100.00
7990;BME280;4040;42.848;23.034;2023-04-08T01:49:27;95013.91;;;3.86;100.00
7990;BME280;4040;42.848;23.034;2023-04-08T01:55:17;95022.06;;;3.74;100.00
7990;BME280;4040;42.848;23.034;2023-04-08T02:01:10;95026.41;;;3.82;100.00
7990;BME280;4040;42.848;23.034;2023-04-08T02:07:00;95032.13;;;3.84;100.00
7990;BME280;4040;42.848;23.034;2023-04-08T02:17:15;95048.50;;;4.05;100.00
7990;BME280;4040;42.848;23.034;2023-04-08T02:23:11;95058.03;;;4.06;100.00
7990;BME280;4040;42.848;23.034;2023-04-08T02:29:03;95059.28;;;4.12;100.00
7990;BME280;4040;42.848;23.034;2023-04-08T02:34:54;95052.47;;;4.14;100.00
7990;BME280;4040;42.848;23.034;2023-04-08T02:40:44;95032.44;;;4.01;100.00
7990;BME280;4040;42.848;23.034;2023-04-08T02:46:33;95047.56;;;4.16;100.00
7990;BME280;4040;42.848;23.034;2023-04-08T02:52:22;95042.09;;;4.28;100.00
7990;BME280;4040;42.848;23.034;2023-04-08T02:58:11;95035.84;;;4.21;100.00
7990;BME280;4040;42.848;23.034;2023-04-08T03:04:00;95032.88;;;4.26;100.00
7990;BME280;4040;42.848;23.034;2023-04-08T03:09:50;95033.16;;;4.21;100.00
7990;BME280;4040;42.848;23.034;2023-04-08T03:20:03;95034.47;;;4.08;100.00
7990;BME280;4040;42.848;23.034;2023-04-08T03:25:54;95028.38;;;4.30;100.00
7990;BME280;4040;42.848;23.034;2023-04-08T03:31:43;95032.00;;;4.18;100.00
7990;BME280;4040;42.848;23.034;2023-04-08T03:37:32;95037.50;;;4.29;100.00
7990;BME280;4040;42.848;23.034;2023-04-08T03:43:22;95037.03;;;4.46;100.00
7990;BME280;4040;42.848;23.034;2023-04-08T03:49:11;95039.97;;;4.41;100.00
7990;BME280;4040;42.848;23.034;2023-04-08T03:55:00;95031.75;;;4.49;100.00
7990;BME280;4040;42.848;23.034;2023-04-08T04:00:50;95042.84;;;4.29;100.00
7990;BME280;4040;42.848;23.034;2023-04-08T04:06:39;95045.16;;;4.30;100.00
7990;BME280;4040;42.848;23.034;2023-04-08T04:12:28;95047.50;;;4.35;100.00
7990;BME280;4040;42.848;23.034;2023-04-08T04:22:40;95030.84;;;4.42;100.00
7990;BME280;4040;42.848;23.034;2023-04-08T04:28:29;95053.44;;;4.48;100.00
7990;BME280;4040;42.848;23.034;2023-04-08T04:34:47;95055.63;;;4.65;100.00
7990;BME280;4040;42.848;23.034;2023-04-08T04:40:38;95060.91;;;4.61;100.00
7990;BME280;4040;42.848;23.034;2023-04-08T04:46:26;95054.56;;;4.47;100.00
7990;BME280;4040;42.848;23.034;2023-04-08T04:52:15;95055.13;;;4.82;100.00
7990;BME280;4040;42.848;23.034;2023-04-08T04:58:06;95052.56;;;5.14;100.00
7990;BME280;4040;42.848;23.034;2023-04-08T05:03:54;95060.81;;;5.06;100.00
7990;BME280;4040;42.848;23.034;2023-04-08T05:09:43;95055.69;;;5.20;100.00
7990;BME280;4040;42.848;23.034;2023-04-08T05:15:33;95053.91;;;5.57;100.00
7990;BME280;4040;42.848;23.034;2023-04-08T05:25:44;95057.75;;;6.65;100.00
7990;BME280;4040;42.848;23.034;2023-04-08T05:31:34;95062.56;;;6.96;100.00
7990;BME280;4040;42.848;23.034;2023-04-08T05:37:23;95064.28;;;7.22;100.00
7990;BME280;4040;42.848;23.034;2023-04-08T05:43:12;95065.13;;;7.36;100.00
7990;BME280;4040;42.848;23.034;2023-04-08T05:49:02;95059.47;;;7.48;100.00
7990;BME280;4040;42.848;23.034;2023-04-08T05:54:51;95049.66;;;7.12;100.00
7990;BME280;4040;42.848;23.034;2023-04-08T06:00:40;95060.69;;;7.00;100.00
7990;BME280;4040;42.848;23.034;2023-04-08T06:06:30;95059.81;;;6.86;100.00
7990;BME280;4040;42.848;23.034;2023-04-08T06:12:18;95055.78;;;6.62;100.00
7990;BME280;4040;42.848;23.034;2023-04-08T06:18:07;95058.41;;;6.55;100.00
7990;BME280;4040;42.848;23.034;2023-04-08T06:28:19;95064.66;;;7.20;100.00
7990;BME280;4040;42.848;23.034;2023-04-08T06:34:07;95061.00;;;7.49;100.00
7990;BME280;4040;42.848;23.034;2023-04-08T06:39:56;95064.59;;;7.81;100.00
7990;BME280;4040;42.848;23.034;2023-04-08T06:45:46;95073.41;;;7.78;100.00
7990;BME280;4040;42.848;23.034;2023-04-08T06:51:35;95065.69;;;7.73;100.00
7990;BME280;4040;42.848;23.034;2023-04-08T06:57:23;95073.44;;;7.92;100.00
7990;BME280;4040;42.848;23.034;2023-04-08T07:03:13;95072.88;;;8.61;96.91
7990;BME280;4040;42.848;23.034;2023-04-08T07:09:02;95062.94;;;9.04;88.01
7990;BME280;4040;42.848;23.034;2023-04-08T07:14:51;95070.59;;;9.30;82.34
7990;BME280;4040;42.848;23.034;2023-04-08T07:20:41;95077.81;;;9.68;81.83
7990;BME280;4040;42.848;23.034;2023-04-08T07:30:51;95076.56;;;10.03;75.59
7990;BME280;4040;42.848;23.034;2023-04-08T07:36:42;95083.50;;;9.84;79.98
7990;BME280;4040;42.848;23.034;2023-04-08T07:42:30;95091.31;;;9.26;88.15
7990;BME280;4040;42.848;23.034;2023-04-08T07:48:19;95099.41;;;9.05;92.46
7990;BME280;4040;42.848;23.034;2023-04-08T07:54:09;95103.56;;;9.65;86.17
7990;BME280;4040;42.848;23.034;2023-04-08T08:00:03;95098.97;;;9.59;85.35
7990;BME280;4040;42.848;23.034;2023-04-08T08:05:52;95107.50;;;10.46;78.60
7990;BME280;4040;42.848;23.034;2023-04-08T08:11:42;95117.81;;;10.58;76.08
7990;BME280;4040;42.848;23.034;2023-04-08T08:17:31;95106.53;;;11.76;68.79
7990;BME280;4040;42.848;23.034;2023-04-08T08:23:20;95101.19;;;13.22;61.71
7990;BME280;4040;42.848;23.034;2023-04-08T08:33:32;95090.69;;;13.01;60.21
7990;BME280;4040;42.848;23.034;2023-04-08T08:39:20;95105.06;;;12.68;61.11
7990;BME280;4040;42.848;23.034;2023-04-08T08:45:09;95103.78;;;12.46;62.13
7990;BME280;4040;42.848;23.034;2023-04-08T08:50:59;95092.34;;;12.05;63.19
7990;BME280;4040;42.848;23.034;2023-04-08T08:56:48;95094.16;;;12.15;63.15
7990;BME280;4040;42.848;23.034;2023-04-08T09:02:37;95093.16;;;12.32;63.18
7990;BME280;4040;42.848;23.034;2023-04-08T09:08:29;95095.31;;;14.35;58.44
7990;BME280;4040;42.848;23.034;2023-04-08T09:14:19;95079.56;;;14.07;55.20
7990;BME280;4040;42.848;23.034;2023-04-08T09:20:10;95086.34;;;15.56;52.61
7990;BME280;4040;42.848;23.034;2023-04-08T09:26:06;95085.44;;;15.91;50.81
7990;BME280;4040;42.848;23.034;2023-04-08T09:36:17;95089.75;;;16.74;48.94
7990;BME280;4040;42.848;23.034;2023-04-08T09:42:09;95081.38;;;18.45;45.22
7990;BME280;4040;42.848;23.034;2023-04-08T09:48:05;95087.69;;;15.48;49.96
7990;BME280;4040;42.848;23.034;2023-04-08T09:54:00;95073.00;;;14.27;52.41
7990;BME280;4040;42.848;23.034;2023-04-08T09:59:56;95077.16;;;13.27;56.38
7990;BME280;4040;42.848;23.034;2023-04-08T10:05:49;95067.41;;;15.21;51.65
7990;BME280;4040;42.848;23.034;2023-04-08T10:11:40;95059.22;;;17.67;45.68
7990;BME280;4040;42.848;23.034;2023-04-08T10:17:30;95065.91;;;16.78;47.01
7990;BME280;4040;42.848;23.034;2023-04-08T10:23:55;95056.84;;;14.24;52.46
7990;BME280;4040;42.848;23.034;2023-04-08T10:29:46;95034.06;;;14.57;52.71
7990;BME280;4040;42.848;23.034;2023-04-08T10:35:37;95034.84;;;16.38;49.18
7990;BME280;4040;42.848;23.034;2023-04-08T10:41:28;95002.22;;;19.73;42.06
7990;BME280;4040;42.848;23.034;2023-04-08T10:47:24;94988.69;;;18.85;42.18
7990;BME280;4040;42.848;23.034;2023-04-08T10:53:16;94992.94;;;18.55;41.78
7990;BME280;4040;42.848;23.034;2023-04-08T10:59:04;94982.38;;;18.36;41.35
7990;BME280;4040;42.848;23.034;2023-04-08T11:04:53;95000.53;;;16.82;42.40
7990;BME280;4040;42.848;23.034;2023-04-08T11:10:43;94978.91;;;16.25;43.99
7990;BME280;4040;42.848;23.034;2023-04-08T11:16:33;94994.78;;;14.97;48.68
7990;BME280;4040;42.848;23.034;2023-04-08T11:22:22;94995.13;;;14.12;51.31
7990;BME280;4040;42.848;23.034;2023-04-08T11:28:13;94983.59;;;13.30;52.43
7990;BME280;4040;42.848;23.034;2023-04-08T11:38:14;94975.53;;;13.03;54.17
7990;BME280;4040;42.848;23.034;2023-04-08T11:44:04;94973.78;;;12.67;55.43
7990;BME280;4040;42.848;23.034;2023-04-08T11:49:53;95008.28;;;12.03;57.47
7990;BME280;4040;42.848;23.034;2023-04-08T11:55:43;95029.47;;;10.39;100.00
7990;BME280;4040;42.848;23.034;2023-04-08T12:01:34;95029.94;;;9.14;100.00
7990;BME280;4040;42.848;23.034;2023-04-08T12:07:22;95036.41;;;8.29;100.00
7990;BME280;4040;42.848;23.034;2023-04-08T12:13:11;95049.56;;;7.66;100.00
7990;BME280;4040;42.848;23.034;2023-04-08T12:19:01;95050.56;;;7.34;100.00
7990;BME280;4040;42.848;23.034;2023-04-08T12:24:50;95043.09;;;7.67;100.00
7990;BME280;4040;42.848;23.034;2023-04-08T12:30:38;95007.69;;;8.33;100.00
7990;BME280;4040;42.848;23.034;2023-04-08T12:40:50;94998.06;;;10.15;100.00
7990;BME280;4040;42.848;23.034;2023-04-08T12:46:39;95006.06;;;10.29;100.00
7990;BME280;4040;42.848;23.034;2023-04-08T12:52:27;94995.50;;;10.59;100.00
7990;BME280;4040;42.848;23.034;2023-04-08T12:58:18;94993.78;;;10.25;100.00
7990;BME280;4040;42.848;23.034;2023-04-08T13:04:07;94984.94;;;10.24;100.00
7990;BME280;4040;42.848;23.034;2023-04-08T13:09:56;94985.59;;;10.93;100.00
7990;BME280;4040;42.848;23.034;2023-04-08T13:15:46;94991.44;;;11.25;100.00
7990;BME280;4040;42.848;23.034;2023-04-08T13:21:35;94991.91;;;11.17;100.00
7990;BME280;4040;42.848;23.034;2023-04-08T13:27:23;94982.63;;;11.58;100.00
7990;BME280;4040;42.848;23.034;2023-04-08T13:33:14;94976.34;;;11.98;100.00
7990;BME280;4040;42.848;23.034;2023-04-08T13:43:25;94963.88;;;11.78;100.00
7990;BME280;4040;42.848;23.034;2023-04-08T13:49:15;94965.19;;;11.66;100.00
7990;BME280;4040;42.848;23.034;2023-04-08T13:55:05;94925.94;;;10.91;100.00
7990;BME280;4040;42.848;23.034;2023-04-08T14:00:53;94961.28;;;11.00;100.00
7990;BME280;4040;42.848;23.034;2023-04-08T14:06:44;94957.75;;;11.07;100.00
7990;BME280;4040;42.848;23.034;2023-04-08T14:12:32;94950.47;;;11.37;100.00
7990;BME280;4040;42.848;23.034;2023-04-08T14:18:21;94957.63;;;12.14;100.00
7990;BME280;4040;42.848;23.034;2023-04-08T14:24:11;94957.31;;;12.35;100.00
7990;BME280;4040;42.848;23.034;2023-04-08T14:30:00;94946.19;;;12.03;100.00
7990;BME280;4040;42.848;23.034;2023-04-08T14:35:51;94955.13;;;11.70;100.00
7990;BME280;4040;42.848;23.034;2023-04-08T14:46:03;94957.00;;;11.40;100.00
7990;BME280;4040;42.848;23.034;2023-04-08T14:51:52;94956.09;;;11.53;100.00
7990;BME280;4040;42.848;23.034;2023-04-08T14:57:40;94959.53;;;11.87;100.00
7990;BME280;4040;42.848;23.034;2023-04-08T15:03:31;94948.47;;;11.78;100.00
7990;BME280;4040;42.848;23.034;2023-04-08T15:09:19;94954.41;;;11.66;100.00
7990;BME280;4040;42.848;23.034;2023-04-08T15:15:38;94966.13;;;11.49;100.00
7990;BME280;4040;42.848;23.034;2023-04-08T15:21:29;94958.81;;;11.50;100.00
7990;BME280;4040;42.848;23.034;2023-04-08T15:27:17;94956.38;;;11.25;100.00
7990;BME280;4040;42.848;23.034;2023-04-08T15:33:06;94961.22;;;11.04;100.00
7990;BME280;4040;42.848;23.034;2023-04-08T15:38:56;94957.31;;;11.08;100.00
7990;BME280;4040;42.848;23.034;2023-04-08T15:49:06;94965.59;;;10.87;100.00
7990;BME280;4040;42.848;23.034;2023-04-08T15:54:57;94976.94;;;11.12;100.00
7990;BME280;4040;42.848;23.034;2023-04-08T16:00:45;94967.63;;;10.76;100.00
7990;BME280;4040;42.848;23.034;2023-04-08T16:06:34;94985.50;;;10.53;100.00
7990;BME280;4040;42.848;23.034;2023-04-08T16:12:24;94987.78;;;10.61;100.00
7990;BME280;4040;42.848;23.034;2023-04-08T16:18:13;94984.03;;;10.48;100.00
7990;BME280;4040;42.848;23.034;2023-04-08T16:24:02;94979.94;;;10.26;100.00
7990;BME280;4040;42.848;23.034;2023-04-08T16:29:53;94982.94;;;10.35;100.00
7990;BME280;4040;42.848;23.034;2023-04-08T16:35:43;94967.00;;;10.07;100.00
7990;BME280;4040;42.848;23.034;2023-04-08T16:41:31;94990.53;;;9.83;100.00
7990;BME280;4040;42.848;23.034;2023-04-08T16:51:43;95009.91;;;9.36;100.00
7990;BME280;4040;42.848;23.034;2023-04-08T16:57:32;95018.00;;;9.29;100.00
7990;BME280;4040;42.848;23.034;2023-04-08T17:03:21;95033.00;;;8.88;100.00
7990;BME280;4040;42.848;23.034;2023-04-08T17:09:11;95043.75;;;8.56;100.00
7990;BME280;4040;42.848;23.034;2023-04-08T17:15:00;95044.44;;;8.22;100.00
7990;BME280;4040;42.848;23.034;2023-04-08T17:20:48;95063.56;;;8.17;100.00
7990;BME280;4040;42.848;23.034;2023-04-08T17:26:40;95051.94;;;7.74;100.00
7990;BME280;4040;42.848;23.034;2023-04-08T17:32:29;95075.84;;;7.36;100.00
7990;BME280;4040;42.848;23.034;2023-04-08T17:38:18;95074.56;;;7.16;100.00
7990;BME280;4040;42.848;23.034;2023-04-08T17:44:09;95077.59;;;7.11;100.00
7990;BME280;4040;42.848;23.034;2023-04-08T17:54:19;95096.78;;;7.20;100.00
7990;BME280;4040;42.848;23.034;2023-04-08T18:00:10;95108.53;;;7.66;100.00
7990;BME280;4040;42.848;23.034;2023-04-08T18:05:59;95129.13;;;7.48;100.00
7990;BME280;4040;42.848;23.034;2023-04-08T18:11:48;95126.19;;;7.67;100.00
7990;BME280;4040;42.848;23.034;2023-04-08T18:17:38;95130.09;;;7.80;100.00
7990;BME280;4040;42.848;23.034;2023-04-08T18:23:27;95139.34;;;7.93;100.00
7990;BME280;4040;42.848;23.034;2023-04-08T18:29:16;95142.78;;;7.97;100.00
7990;BME280;4040;42.848;23.034;2023-04-08T18:35:07;95154.66;;;7.92;100.00
7990;BME280;4040;42.848;23.034;2023-04-08T18:40:56;95153.81;;;7.81;100.00
7990;BME280;4040;42.848;23.034;2023-04-08T18:46:45;95148.78;;;7.69;100.00
7990;BME280;4040;42.848;23.034;2023-04-08T18:56:57;95150.66;;;7.62;100.00
7990;BME280;4040;42.848;23.034;2023-04-08T19:02:47;95162.06;;;7.52;100.00
7990;BME280;4040;42.848;23.034;2023-04-08T19:08:36;95164.59;;;7.31;100.00
7990;BME280;4040;42.848;23.034;2023-04-08T19:14:26;95136.53;;;7.15;100.00
7990;BME280;4040;42.848;23.034;2023-04-08T19:20:15;95164.31;;;7.43;100.00
7990;BME280;4040;42.848;23.034;2023-04-08T19:26:04;95170.50;;;7.54;100.00
7990;BME280;4040;42.848;23.034;2023-04-08T19:31:54;95170.56;;;7.61;100.00
7990;BME280;4040;42.848;23.034;2023-04-08T19:37:45;95168.94;;;7.46;100.00
7990;BME280;4040;42.848;23.034;2023-04-08T19:43:33;95178.91;;;7.49;100.00
7990;BME280;4040;42.848;23.034;2023-04-08T19:49:24;95163.59;;;7.53;100.00
7990;BME280;4040;42.848;23.034;2023-04-08T19:59:34;95156.75;;;7.55;100.00
7990;BME280;4040;42.848;23.034;2023-04-08T20:05:25;95155.97;;;7.55;100.00
7990;BME280;4040;42.848;23.034;2023-04-08T20:11:13;95154.41;;;7.50;100.00
7990;BME280;4040;42.848;23.034;2023-04-08T20:17:02;95150.66;;;7.62;100.00
7990;BME280;4040;42.848;23.034;2023-04-08T20:22:52;95137.25;;;7.62;100.00
7990;BME280;4040;42.848;23.034;2023-04-08T20:28:42;95143.78;;;7.64;100.00
7990;BME280;4040;42.848;23.034;2023-04-08T20:34:31;95145.69;;;7.10;100.00
7990;BME280;4040;42.848;23.034;2023-04-08T20:40:22;95120.50;;;6.75;100.00
7990;BME280;4040;42.848;23.034;2023-04-08T20:46:10;95147.03;;;6.90;100.00
7990;BME280;4040;42.848;23.034;2023-04-08T20:52:00;95153.53;;;6.89;100.00
7990;BME280;4040;42.848;23.034;2023-04-08T21:02:12;95156.25;;;6.93;100.00
7990;BME280;4040;42.848;23.034;2023-04-08T21:08:01;95160.91;;;6.99;100.00
7990;BME280;4040;42.848;23.034;2023-04-08T21:13:50;95157.25;;;7.21;100.00
7990;BME280;4040;42.848;23.034;2023-04-08T21:19:40;95150.75;;;7.22;100.00
7990;BME280;4040;42.848;23.034;2023-04-08T21:25:30;95151.16;;;7.28;100.00
7990;BME280;4040;42.848;23.034;2023-04-08T21:31:19;95154.94;;;7.16;100.00
7990;BME280;4040;42.848;23.034;2023-04-08T21:37:09;95148.09;;;7.26;100.00
7990;BME280;4040;42.848;23.034;2023-04-08T21:42:58;95144.31;;;7.30;100.00
7990;BME280;4040;42.848;23.034;2023-04-08T21:48:47;95144.31;;;7.30;100.00
7990;BME280;4040;42.848;23.034;2023-04-08T21:54:37;95140.47;;;7.28;100.00
7990;BME280;4040;42.848;23.034;2023-04-08T22:08:25;95139.34;;;6.85;100.00
7990;BME280;4040;42.848;23.034;2023-04-08T22:14:14;95145.38;;;6.75;100.00
7990;BME280;4040;42.848;23.034;2023-04-08T22:20:04;95146.09;;;6.72;100.00
7990;BME280;4040;42.848;23.034;2023-04-08T22:25:54;95143.69;;;6.60;100.00
7990;BME280;4040;42.848;23.034;2023-04-08T22:31:43;95149.72;;;6.50;100.00
7990;BME280;4040;42.848;23.034;2023-04-08T22:37:32;95148.88;;;6.43;100.00
7990;BME280;4040;42.848;23.034;2023-04-08T22:43:22;95148.16;;;6.49;100.00
7990;BME280;4040;42.848;23.034;2023-04-08T22:49:11;95150.34;;;6.40;100.00
7990;BME280;4040;42.848;23.034;2023-04-08T22:55:00;95142.78;;;6.46;100.00
7990;BME280;4040;42.848;23.034;2023-04-08T23:00:51;95142.50;;;6.54;100.00
7990;BME280;4040;42.848;23.034;2023-04-08T23:11:01;95140.00;;;6.35;100.00
7990;BME280;4040;42.848;23.034;2023-04-08T23:16:52;95138.72;;;6.22;100.00
7990;BME280;4040;42.848;23.034;2023-04-08T23:22:40;95125.63;;;6.14;100.00
7990;BME280;4040;42.848;23.034;2023-04-08T23:28:29;95131.25;;;6.05;100.00
7990;BME280;4040;42.848;23.034;2023-04-08T23:34:20;95126.16;;;5.93;100.00
7990;BME280;4040;42.848;23.034;2023-04-08T23:40:09;95116.81;;;5.80;100.00
7990;BME280;4040;42.848;23.034;2023-04-08T23:45:57;95115.09;;;5.69;100.00
7990;BME280;4040;42.848;23.034;2023-04-08T23:51:48;95128.91;;;5.45;100.00
7990;BME280;4040;42.848;23.034;2023-04-08T23:57:36;95129.38;;;5.24;100.00
